Ruby Airport
PARY : now visible

Airfield :











YOU CAN JOIN US ON...

 
LOGIN :

Register | Disclaimer

   EN    FR    IT 

 









Legend :    VFR   Marginal VFR   IFR   Intensive IFR   Very Intensive IFR
Visi :
Ceiling :
>= 8 km
>= 3000ft
5 to 8 km
1000 to 3000 ft
1500m to 5 km
500 to 1000 ft
800 to 1500m
200 to 500 ft
< 800m
< 200 ft
Symbols :   Thunderstorms  Fog  Heavy snow  Heavy precipitations  Wind > 20 kt






- Airport Elevation : 658 ft
- IATA code : RBY


PARY - Ruby

CURRENT METAR :
  • 301956Z AUTO 09021G28KT 10SM CLR M11/M24 A3022 RMK AO2 PK WND 08028/1955 SLP256 T11061244 FZRANO

EXPIRED METARs :
  • 301856Z AUTO 08014G19KT 10SM CLR M12/M25 A3024 RMK AO2 SLP262 T11221250 FZRANO
  • 301756Z AUTO 08013G18KT 10SM CLR M14/M26 A3026 RMK AO2 SLP270 T11441256 11144 21167 55000 FZRANO

TAF N/A



MET'MAP, your aeronautical weather chart ! - Copyright ORBIFLY December 2007 - Disclaimer

ORBIFLY MET'MAP TEAM :

Programming & Development : Alexandra Zaïnal
Concept & original design : Baudouin d'Aumeries
Assistance for programming : Marc-Olivier Méhu
Technical & hardware support : Manuel Goepfert

Contact : metmap@orbifly.com




SOURCES & CREDITS :

   NOAA       Earth
Advisory